< < Back
Terminal Aerodrome Forecast


Current Version              Previous Versions:   1  2  3  4  5  6  7  8  9  

Terminal Aerodrome Forecast

825
FTUS42 KCAE 301532 AAA
TAFAGS
TAF AMD
KAGS 301532Z 3016/0112 25011KT P6SM SCT050
     FM302100 22012G20KT P6SM VCTS SCT050CB BKN100
     FM010000 22008KT P6SM VCTS BKN050CB
     FM010300 22005KT P6SM BKN100=

Latest METAR

260
SAUS70 KWBC 301500 RRG
MTRAGS
METAR KAGS 301453Z 24007KT 10SM CLR 30/20 A3001 RMK AO2 SLP159 T03000200
53001


USA.gov is the U.S. government's official web portal to all federal, state and local government web resources and services.